sensor_id;sensor_type;location;lat;lon;timestamp;temperature;humidity
45115;DHT22;30877;43.706;10.780;2023-01-23T00:01:28;7.60;96.70
45115;DHT22;30877;43.706;10.780;2023-01-23T00:03:56;7.60;96.70
45115;DHT22;30877;43.706;10.780;2023-01-23T00:06:25;7.60;96.70
45115;DHT22;30877;43.706;10.780;2023-01-23T00:08:54;7.70;96.70
45115;DHT22;30877;43.706;10.780;2023-01-23T00:11:25;7.70;96.70
45115;DHT22;30877;43.706;10.780;2023-01-23T00:13:53;7.70;96.70
45115;DHT22;30877;43.706;10.780;2023-01-23T00:16:24;7.70;96.70
45115;DHT22;30877;43.706;10.780;2023-01-23T00:18:52;7.70;96.70
45115;DHT22;30877;43.706;10.780;2023-01-23T00:21:22;7.70;96.70
45115;DHT22;30877;43.706;10.780;2023-01-23T00:23:56;7.70;96.70
45115;DHT22;30877;43.706;10.780;2023-01-23T00:26:26;7.70;96.70
45115;DHT22;30877;43.706;10.780;2023-01-23T00:28:54;7.70;96.70
45115;DHT22;30877;43.706;10.780;2023-01-23T00:31:24;7.70;96.70
45115;DHT22;30877;43.706;10.780;2023-01-23T00:33:54;7.70;96.70
45115;DHT22;30877;43.706;10.780;2023-01-23T00:36:23;7.70;96.70
45115;DHT22;30877;43.706;10.780;2023-01-23T00:38:54;7.70;96.70
45115;DHT22;30877;43.706;10.780;2023-01-23T00:41:21;7.70;96.70
45115;DHT22;30877;43.706;10.780;2023-01-23T00:43:49;7.70;96.70
45115;DHT22;30877;43.706;10.780;2023-01-23T00:46:19;7.70;96.70
45115;DHT22;30877;43.706;10.780;2023-01-23T00:48:47;7.70;96.70
45115;DHT22;30877;43.706;10.780;2023-01-23T00:51:16;7.70;96.70
45115;DHT22;30877;43.706;10.780;2023-01-23T00:53:44;7.70;96.70
45115;DHT22;30877;43.706;10.780;2023-01-23T00:56:13;7.60;96.70
45115;DHT22;30877;43.706;10.780;2023-01-23T00:58:41;7.60;96.70
45115;DHT22;30877;43.706;10.780;2023-01-23T01:01:12;7.60;96.70
45115;DHT22;30877;43.706;10.780;2023-01-23T01:03:40;7.60;96.70
45115;DHT22;30877;43.706;10.780;2023-01-23T01:06:08;7.60;96.70
45115;DHT22;30877;43.706;10.780;2023-01-23T01:08:36;7.70;96.70
45115;DHT22;30877;43.706;10.780;2023-01-23T01:11:04;7.60;96.70
45115;DHT22;30877;43.706;10.780;2023-01-23T01:13:35;7.60;96.70
45115;DHT22;30877;43.706;10.780;2023-01-23T01:16:03;7.60;96.70
45115;DHT22;30877;43.706;10.780;2023-01-23T01:18:32;7.60;96.70
45115;DHT22;30877;43.706;10.780;2023-01-23T01:21:10;7.60;96.70
45115;DHT22;30877;43.706;10.780;2023-01-23T01:23:38;7.60;96.70
45115;DHT22;30877;43.706;10.780;2023-01-23T01:26:06;7.60;96.70
45115;DHT22;30877;43.706;10.780;2023-01-23T01:28:37;7.50;96.70
45115;DHT22;30877;43.706;10.780;2023-01-23T01:31:07;7.60;96.70
45115;DHT22;30877;43.706;10.780;2023-01-23T01:33:36;7.60;96.70
45115;DHT22;30877;43.706;10.780;2023-01-23T01:36:08;7.50;96.70
45115;DHT22;30877;43.706;10.780;2023-01-23T01:38:36;7.60;96.70
45115;DHT22;30877;43.706;10.780;2023-01-23T01:41:06;7.60;96.70
45115;DHT22;30877;43.706;10.780;2023-01-23T01:43:36;7.50;96.70
45115;DHT22;30877;43.706;10.780;2023-01-23T01:46:17;7.50;96.70
45115;DHT22;30877;43.706;10.780;2023-01-23T01:49:02;7.50;96.70
45115;DHT22;30877;43.706;10.780;2023-01-23T01:51:34;7.50;96.70
45115;DHT22;30877;43.706;10.780;2023-01-23T01:54:09;7.50;96.70
45115;DHT22;30877;43.706;10.780;2023-01-23T01:56:41;7.50;96.70
45115;DHT22;30877;43.706;10.780;2023-01-23T01:59:13;7.50;96.70
45115;DHT22;30877;43.706;10.780;2023-01-23T02:01:41;7.50;96.70
45115;DHT22;30877;43.706;10.780;2023-01-23T02:04:13;7.50;96.70
45115;DHT22;30877;43.706;10.780;2023-01-23T02:06:42;7.50;96.70
45115;DHT22;30877;43.706;10.780;2023-01-23T02:09:15;7.50;96.70
45115;DHT22;30877;43.706;10.780;2023-01-23T02:11:46;7.50;96.70
45115;DHT22;30877;43.706;10.780;2023-01-23T02:14:20;7.50;96.70
45115;DHT22;30877;43.706;10.780;2023-01-23T02:16:51;7.50;96.70
45115;DHT22;30877;43.706;10.780;2023-01-23T02:19:30;7.50;96.70
45115;DHT22;30877;43.706;10.780;2023-01-23T02:22:09;7.50;96.70
45115;DHT22;30877;43.706;10.780;2023-01-23T02:24:45;7.50;96.70
45115;DHT22;30877;43.706;10.780;2023-01-23T02:27:22;7.50;96.70
45115;DHT22;30877;43.706;10.780;2023-01-23T02:29:51;7.50;96.70
45115;DHT22;30877;43.706;10.780;2023-01-23T02:32:25;7.50;96.70
45115;DHT22;30877;43.706;10.780;2023-01-23T02:34:56;7.50;96.70
45115;DHT22;30877;43.706;10.780;2023-01-23T02:37:28;7.50;96.70
45115;DHT22;30877;43.706;10.780;2023-01-23T02:39:58;7.40;96.70
45115;DHT22;30877;43.706;10.780;2023-01-23T02:42:29;7.40;96.70
45115;DHT22;30877;43.706;10.780;2023-01-23T02:44:59;7.30;96.70
45115;DHT22;30877;43.706;10.780;2023-01-23T02:47:27;7.30;96.70
45115;DHT22;30877;43.706;10.780;2023-01-23T02:49:57;7.40;96.70
45115;DHT22;30877;43.706;10.780;2023-01-23T02:52:25;7.40;96.70
45115;DHT22;30877;43.706;10.780;2023-01-23T02:54:53;7.40;96.70
45115;DHT22;30877;43.706;10.780;2023-01-23T02:57:21;7.30;96.70
45115;DHT22;30877;43.706;10.780;2023-01-23T02:59:50;7.30;96.70
45115;DHT22;30877;43.706;10.780;2023-01-23T03:02:36;7.30;96.70
45115;DHT22;30877;43.706;10.780;2023-01-23T03:05:09;7.20;96.70
45115;DHT22;30877;43.706;10.780;2023-01-23T03:07:37;7.10;96.70
45115;DHT22;30877;43.706;10.780;2023-01-23T03:10:05;7.20;96.70
45115;DHT22;30877;43.706;10.780;2023-01-23T03:12:37;7.10;96.70
45115;DHT22;30877;43.706;10.780;2023-01-23T03:15:11;7.10;96.70
45115;DHT22;30877;43.706;10.780;2023-01-23T03:17:38;7.10;96.70
45115;DHT22;30877;43.706;10.780;2023-01-23T03:20:07;7.10;96.70
45115;DHT22;30877;43.706;10.780;2023-01-23T03:22:35;7.20;96.70
45115;DHT22;30877;43.706;10.780;2023-01-23T03:25:04;7.20;96.70
45115;DHT22;30877;43.706;10.780;2023-01-23T03:27:32;7.20;96.70
45115;DHT22;30877;43.706;10.780;2023-01-23T03:30:01;7.20;96.70
45115;DHT22;30877;43.706;10.780;2023-01-23T03:32:44;7.30;96.70
45115;DHT22;30877;43.706;10.780;2023-01-23T03:35:14;7.30;96.70
45115;DHT22;30877;43.706;10.780;2023-01-23T03:37:44;7.30;96.70
45115;DHT22;30877;43.706;10.780;2023-01-23T03:40:15;7.30;96.70
45115;DHT22;30877;43.706;10.780;2023-01-23T03:43:03;7.30;96.70
45115;DHT22;30877;43.706;10.780;2023-01-23T03:45:34;7.30;96.70
45115;DHT22;30877;43.706;10.780;2023-01-23T03:48:04;7.30;96.70
45115;DHT22;30877;43.706;10.780;2023-01-23T03:50:33;7.30;96.70
45115;DHT22;30877;43.706;10.780;2023-01-23T03:53:01;7.30;96.70
45115;DHT22;30877;43.706;10.780;2023-01-23T03:55:29;7.20;96.70
45115;DHT22;30877;43.706;10.780;2023-01-23T03:57:56;7.20;96.70
45115;DHT22;30877;43.706;10.780;2023-01-23T04:00:28;7.30;96.70
45115;DHT22;30877;43.706;10.780;2023-01-23T04:03:04;7.30;96.70
45115;DHT22;30877;43.706;10.780;2023-01-23T04:05:33;7.30;96.70
45115;DHT22;30877;43.706;10.780;2023-01-23T04:08:01;7.30;96.70
45115;DHT22;30877;43.706;10.780;2023-01-23T04:10:30;7.40;96.70
45115;DHT22;30877;43.706;10.780;2023-01-23T04:13:05;7.40;96.70
45115;DHT22;30877;43.706;10.780;2023-01-23T04:15:33;7.40;96.70
45115;DHT22;30877;43.706;10.780;2023-01-23T04:18:06;7.40;96.70
45115;DHT22;30877;43.706;10.780;2023-01-23T04:20:34;7.50;96.70
45115;DHT22;30877;43.706;10.780;2023-01-23T04:23:02;7.40;96.70
45115;DHT22;30877;43.706;10.780;2023-01-23T04:25:30;7.40;96.70
45115;DHT22;30877;43.706;10.780;2023-01-23T04:27:58;7.40;96.70
45115;DHT22;30877;43.706;10.780;2023-01-23T04:30:26;7.40;96.70
45115;DHT22;30877;43.706;10.780;2023-01-23T04:32:58;7.40;96.70
45115;DHT22;30877;43.706;10.780;2023-01-23T04:35:27;7.40;96.70
45115;DHT22;30877;43.706;10.780;2023-01-23T04:37:55;7.40;96.70
45115;DHT22;30877;43.706;10.780;2023-01-23T04:40:23;7.30;96.70
45115;DHT22;30877;43.706;10.780;2023-01-23T04:42:55;7.40;96.70
45115;DHT22;30877;43.706;10.780;2023-01-23T04:45:31;7.40;96.70
45115;DHT22;30877;43.706;10.780;2023-01-23T04:48:17;7.40;96.70
45115;DHT22;30877;43.706;10.780;2023-01-23T04:50:47;7.50;96.70
45115;DHT22;30877;43.706;10.780;2023-01-23T04:53:15;7.50;96.70
45115;DHT22;30877;43.706;10.780;2023-01-23T04:55:46;7.60;96.70
45115;DHT22;30877;43.706;10.780;2023-01-23T04:58:17;7.70;96.70
45115;DHT22;30877;43.706;10.780;2023-01-23T05:00:45;7.70;96.70
45115;DHT22;30877;43.706;10.780;2023-01-23T05:03:15;7.70;96.70
45115;DHT22;30877;43.706;10.780;2023-01-23T05:05:47;7.70;96.70
45115;DHT22;30877;43.706;10.780;2023-01-23T05:08:15;7.70;96.70
45115;DHT22;30877;43.706;10.780;2023-01-23T05:10:50;7.70;96.70
45115;DHT22;30877;43.706;10.780;2023-01-23T05:13:19;7.60;96.70
45115;DHT22;30877;43.706;10.780;2023-01-23T05:15:47;7.60;96.70
45115;DHT22;30877;43.706;10.780;2023-01-23T05:18:16;7.60;96.70
45115;DHT22;30877;43.706;10.780;2023-01-23T05:20:46;7.60;96.70
45115;DHT22;30877;43.706;10.780;2023-01-23T05:23:14;7.60;96.70
45115;DHT22;30877;43.706;10.780;2023-01-23T05:25:48;7.60;96.70
45115;DHT22;30877;43.706;10.780;2023-01-23T05:28:16;7.60;96.70
45115;DHT22;30877;43.706;10.780;2023-01-23T05:30:49;7.60;96.70
45115;DHT22;30877;43.706;10.780;2023-01-23T05:33:42;7.60;96.70
45115;DHT22;30877;43.706;10.780;2023-01-23T05:36:12;7.70;96.70
45115;DHT22;30877;43.706;10.780;2023-01-23T05:38:40;7.70;96.70
45115;DHT22;30877;43.706;10.780;2023-01-23T05:41:09;7.70;96.70
45115;DHT22;30877;43.706;10.780;2023-01-23T05:44:06;7.70;96.70
45115;DHT22;30877;43.706;10.780;2023-01-23T05:46:53;7.70;96.70
45115;DHT22;30877;43.706;10.780;2023-01-23T05:49:21;7.70;96.70
45115;DHT22;30877;43.706;10.780;2023-01-23T05:51:52;7.70;96.70
45115;DHT22;30877;43.706;10.780;2023-01-23T05:54:23;7.70;96.70
45115;DHT22;30877;43.706;10.780;2023-01-23T05:56:52;7.70;96.70
45115;DHT22;30877;43.706;10.780;2023-01-23T05:59:38;7.70;96.70
45115;DHT22;30877;43.706;10.780;2023-01-23T06:02:33;7.70;96.70
45115;DHT22;30877;43.706;10.780;2023-01-23T06:05:34;7.70;96.70
45115;DHT22;30877;43.706;10.780;2023-01-23T06:08:11;7.70;96.70
45115;DHT22;30877;43.706;10.780;2023-01-23T06:10:41;7.70;96.70
45115;DHT22;30877;43.706;10.780;2023-01-23T06:13:09;7.70;96.70
45115;DHT22;30877;43.706;10.780;2023-01-23T06:15:38;7.70;96.70
45115;DHT22;30877;43.706;10.780;2023-01-23T06:18:11;7.70;96.70
45115;DHT22;30877;43.706;10.780;2023-01-23T06:20:39;7.70;96.70
45115;DHT22;30877;43.706;10.780;2023-01-23T06:23:09;7.70;96.70
45115;DHT22;30877;43.706;10.780;2023-01-23T06:25:38;7.70;96.70
45115;DHT22;30877;43.706;10.780;2023-01-23T06:28:11;7.70;96.70
45115;DHT22;30877;43.706;10.780;2023-01-23T06:30:39;7.70;96.70
45115;DHT22;30877;43.706;10.780;2023-01-23T06:33:19;7.70;96.70
45115;DHT22;30877;43.706;10.780;2023-01-23T06:35:48;7.70;96.70
45115;DHT22;30877;43.706;10.780;2023-01-23T06:38:18;7.70;96.70
45115;DHT22;30877;43.706;10.780;2023-01-23T06:40:49;7.60;96.70
45115;DHT22;30877;43.706;10.780;2023-01-23T06:43:26;7.60;96.70
45115;DHT22;30877;43.706;10.780;2023-01-23T06:45:55;7.60;96.70
45115;DHT22;30877;43.706;10.780;2023-01-23T06:48:24;7.70;96.70
45115;DHT22;30877;43.706;10.780;2023-01-23T06:50:53;7.60;96.70
45115;DHT22;30877;43.706;10.780;2023-01-23T06:53:23;7.60;96.70
45115;DHT22;30877;43.706;10.780;2023-01-23T06:55:52;7.50;96.70
45115;DHT22;30877;43.706;10.780;2023-01-23T06:58:20;7.50;96.70
45115;DHT22;30877;43.706;10.780;2023-01-23T07:00:52;7.50;96.70
45115;DHT22;30877;43.706;10.780;2023-01-23T07:04:02;7.60;96.70
45115;DHT22;30877;43.706;10.780;2023-01-23T07:06:31;7.50;96.70
45115;DHT22;30877;43.706;10.780;2023-01-23T07:09:02;7.50;96.70
45115;DHT22;30877;43.706;10.780;2023-01-23T07:11:30;7.50;96.70
45115;DHT22;30877;43.706;10.780;2023-01-23T07:13:59;7.60;96.70
45115;DHT22;30877;43.706;10.780;2023-01-23T07:16:28;7.50;96.70
45115;DHT22;30877;43.706;10.780;2023-01-23T07:18:57;7.50;96.70
45115;DHT22;30877;43.706;10.780;2023-01-23T07:21:32;7.50;96.70
45115;DHT22;30877;43.706;10.780;2023-01-23T07:24:02;7.50;96.70
45115;DHT22;30877;43.706;10.780;2023-01-23T07:26:30;7.50;96.70
45115;DHT22;30877;43.706;10.780;2023-01-23T07:28:58;7.40;96.70
45115;DHT22;30877;43.706;10.780;2023-01-23T07:31:27;7.40;96.70
45115;DHT22;30877;43.706;10.780;2023-01-23T07:33:55;7.40;96.70
45115;DHT22;30877;43.706;10.780;2023-01-23T07:36:23;7.30;96.70
45115;DHT22;30877;43.706;10.780;2023-01-23T07:38:52;7.20;96.70
45115;DHT22;30877;43.706;10.780;2023-01-23T07:41:22;7.30;96.70
45115;DHT22;30877;43.706;10.780;2023-01-23T07:43:50;7.30;96.70
45115;DHT22;30877;43.706;10.780;2023-01-23T07:46:18;7.30;96.70
45115;DHT22;30877;43.706;10.780;2023-01-23T07:48:47;7.30;96.70
45115;DHT22;30877;43.706;10.780;2023-01-23T07:51:15;7.30;96.70
45115;DHT22;30877;43.706;10.780;2023-01-23T07:53:44;7.40;96.70
45115;DHT22;30877;43.706;10.780;2023-01-23T07:56:12;7.40;96.70
45115;DHT22;30877;43.706;10.780;2023-01-23T07:58:42;7.40;96.70
45115;DHT22;30877;43.706;10.780;2023-01-23T08:01:11;7.30;96.70
45115;DHT22;30877;43.706;10.780;2023-01-23T08:03:39;7.30;96.70
45115;DHT22;30877;43.706;10.780;2023-01-23T08:06:07;7.30;96.70
45115;DHT22;30877;43.706;10.780;2023-01-23T08:08:36;7.20;96.70
45115;DHT22;30877;43.706;10.780;2023-01-23T08:11:05;7.20;96.70
45115;DHT22;30877;43.706;10.780;2023-01-23T08:13:33;7.10;96.70
45115;DHT22;30877;43.706;10.780;2023-01-23T08:16:03;7.10;96.70
45115;DHT22;30877;43.706;10.780;2023-01-23T08:18:32;7.20;96.70
45115;DHT22;30877;43.706;10.780;2023-01-23T08:21:01;7.20;96.70
45115;DHT22;30877;43.706;10.780;2023-01-23T08:23:32;7.00;96.70
45115;DHT22;30877;43.706;10.780;2023-01-23T08:26:03;7.00;96.70
45115;DHT22;30877;43.706;10.780;2023-01-23T08:28:32;6.90;96.70
45115;DHT22;30877;43.706;10.780;2023-01-23T08:31:03;6.90;96.70
45115;DHT22;30877;43.706;10.780;2023-01-23T08:33:33;6.90;96.70
45115;DHT22;30877;43.706;10.780;2023-01-23T08:36:03;6.90;96.70
45115;DHT22;30877;43.706;10.780;2023-01-23T08:38:32;7.00;96.70
45115;DHT22;30877;43.706;10.780;2023-01-23T08:41:01;7.00;96.70
45115;DHT22;30877;43.706;10.780;2023-01-23T08:43:30;7.00;96.70
45115;DHT22;30877;43.706;10.780;2023-01-23T08:45:59;7.00;96.70
45115;DHT22;30877;43.706;10.780;2023-01-23T08:48:29;7.10;96.70
45115;DHT22;30877;43.706;10.780;2023-01-23T08:50:59;7.10;96.70
45115;DHT22;30877;43.706;10.780;2023-01-23T08:53:28;7.10;96.70
45115;DHT22;30877;43.706;10.780;2023-01-23T08:56:00;7.00;96.70
45115;DHT22;30877;43.706;10.780;2023-01-23T08:58:29;7.10;96.70
45115;DHT22;30877;43.706;10.780;2023-01-23T09:00:57;7.10;96.70
45115;DHT22;30877;43.706;10.780;2023-01-23T09:03:26;7.00;96.70
45115;DHT22;30877;43.706;10.780;2023-01-23T09:05:59;7.00;96.70
45115;DHT22;30877;43.706;10.780;2023-01-23T09:08:28;7.10;96.70
45115;DHT22;30877;43.706;10.780;2023-01-23T09:10:59;7.10;96.70
45115;DHT22;30877;43.706;10.780;2023-01-23T09:13:28;7.10;96.70
45115;DHT22;30877;43.706;10.780;2023-01-23T09:15:57;7.10;96.70
45115;DHT22;30877;43.706;10.780;2023-01-23T09:18:25;7.10;96.70
45115;DHT22;30877;43.706;10.780;2023-01-23T09:20:54;7.20;96.70
45115;DHT22;30877;43.706;10.780;2023-01-23T09:23:24;7.20;96.70
45115;DHT22;30877;43.706;10.780;2023-01-23T09:25:52;7.30;96.70
45115;DHT22;30877;43.706;10.780;2023-01-23T09:28:20;7.40;96.70
45115;DHT22;30877;43.706;10.780;2023-01-23T09:30:48;7.40;96.70
45115;DHT22;30877;43.706;10.780;2023-01-23T09:33:17;7.40;96.70
45115;DHT22;30877;43.706;10.780;2023-01-23T09:35:50;7.40;96.70
45115;DHT22;30877;43.706;10.780;2023-01-23T09:38:19;7.30;96.70
45115;DHT22;30877;43.706;10.780;2023-01-23T09:40:50;7.30;96.70
45115;DHT22;30877;43.706;10.780;2023-01-23T09:43:23;7.40;96.70
45115;DHT22;30877;43.706;10.780;2023-01-23T09:46:02;7.40;96.70
45115;DHT22;30877;43.706;10.780;2023-01-23T09:48:41;7.40;96.70
45115;DHT22;30877;43.706;10.780;2023-01-23T09:51:14;7.40;96.70
45115;DHT22;30877;43.706;10.780;2023-01-23T09:53:43;7.40;96.70
45115;DHT22;30877;43.706;10.780;2023-01-23T09:56:26;7.40;96.70
45115;DHT22;30877;43.706;10.780;2023-01-23T09:59:02;7.50;96.70
45115;DHT22;30877;43.706;10.780;2023-01-23T10:01:33;7.50;96.70
45115;DHT22;30877;43.706;10.780;2023-01-23T10:04:01;7.70;96.70
45115;DHT22;30877;43.706;10.780;2023-01-23T10:06:37;7.70;96.70
45115;DHT22;30877;43.706;10.780;2023-01-23T10:09:29;7.70;96.70
45115;DHT22;30877;43.706;10.780;2023-01-23T10:12:08;7.80;96.70
45115;DHT22;30877;43.706;10.780;2023-01-23T10:14:53;8.00;96.70
45115;DHT22;30877;43.706;10.780;2023-01-23T10:17:28;8.10;96.70
45115;DHT22;30877;43.706;10.780;2023-01-23T10:20:15;8.20;96.70
45115;DHT22;30877;43.706;10.780;2023-01-23T10:22:50;8.20;96.70
45115;DHT22;30877;43.706;10.780;2023-01-23T10:25:26;8.30;96.70
45115;DHT22;30877;43.706;10.780;2023-01-23T10:27:59;8.50;96.70
45115;DHT22;30877;43.706;10.780;2023-01-23T10:30:31;8.30;96.70
45115;DHT22;30877;43.706;10.780;2023-01-23T10:33:12;8.30;96.70
45115;DHT22;30877;43.706;10.780;2023-01-23T10:35:44;8.40;96.70
45115;DHT22;30877;43.706;10.780;2023-01-23T10:38:24;8.30;96.70
45115;DHT22;30877;43.706;10.780;2023-01-23T10:40:52;8.20;96.70
45115;DHT22;30877;43.706;10.780;2023-01-23T10:43:41;8.20;96.70
45115;DHT22;30877;43.706;10.780;2023-01-23T10:46:12;8.30;96.70
45115;DHT22;30877;43.706;10.780;2023-01-23T10:48:44;8.40;96.70
45115;DHT22;30877;43.706;10.780;2023-01-23T10:51:33;8.40;96.70
45115;DHT22;30877;43.706;10.780;2023-01-23T10:54:03;8.20;96.70
45115;DHT22;30877;43.706;10.780;2023-01-23T10:56:35;8.10;96.70
45115;DHT22;30877;43.706;10.780;2023-01-23T10:59:06;8.10;96.70
45115;DHT22;30877;43.706;10.780;2023-01-23T11:01:35;8.00;96.70
45115;DHT22;30877;43.706;10.780;2023-01-23T11:04:13;8.00;96.70
45115;DHT22;30877;43.706;10.780;2023-01-23T11:06:45;8.00;96.70
45115;DHT22;30877;43.706;10.780;2023-01-23T11:09:27;8.00;96.70
45115;DHT22;30877;43.706;10.780;2023-01-23T11:12:02;8.10;96.70
45115;DHT22;30877;43.706;10.780;2023-01-23T11:14:32;8.10;96.70
45115;DHT22;30877;43.706;10.780;2023-01-23T11:17:03;8.10;96.70
45115;DHT22;30877;43.706;10.780;2023-01-23T11:19:32;8.10;96.70
45115;DHT22;30877;43.706;10.780;2023-01-23T11:22:00;8.10;96.70
45115;DHT22;30877;43.706;10.780;2023-01-23T11:24:34;8.20;96.70
45115;DHT22;30877;43.706;10.780;2023-01-23T11:27:17;8.20;96.70
45115;DHT22;30877;43.706;10.780;2023-01-23T11:32:42;8.10;96.70
45115;DHT22;30877;43.706;10.780;2023-01-23T11:35:17;8.10;96.70
45115;DHT22;30877;43.706;10.780;2023-01-23T11:37:47;8.10;96.70
45115;DHT22;30877;43.706;10.780;2023-01-23T11:40:17;8.10;96.70
45115;DHT22;30877;43.706;10.780;2023-01-23T11:42:45;8.10;96.70
45115;DHT22;30877;43.706;10.780;2023-01-23T11:45:24;8.20;96.70
45115;DHT22;30877;43.706;10.780;2023-01-23T11:48:05;8.10;96.70
45115;DHT22;30877;43.706;10.780;2023-01-23T11:50:39;8.10;96.70
45115;DHT22;30877;43.706;10.780;2023-01-23T11:53:28;8.20;96.70
45115;DHT22;30877;43.706;10.780;2023-01-23T11:56:32;8.20;96.70
45115;DHT22;30877;43.706;10.780;2023-01-23T12:02:37;8.30;96.70
45115;DHT22;30877;43.706;10.780;2023-01-23T12:05:25;8.20;96.70
45115;DHT22;30877;43.706;10.780;2023-01-23T12:08:10;8.20;96.70
45115;DHT22;30877;43.706;10.780;2023-01-23T12:10:51;8.20;96.70
45115;DHT22;30877;43.706;10.780;2023-01-23T12:13:40;8.30;96.70
45115;DHT22;30877;43.706;10.780;2023-01-23T12:16:16;8.40;96.70
45115;DHT22;30877;43.706;10.780;2023-01-23T12:19:06;8.40;96.70
45115;DHT22;30877;43.706;10.780;2023-01-23T12:21:43;8.40;96.70
45115;DHT22;30877;43.706;10.780;2023-01-23T12:24:18;8.40;96.70
45115;DHT22;30877;43.706;10.780;2023-01-23T12:27:00;8.30;96.70
45115;DHT22;30877;43.706;10.780;2023-01-23T12:29:46;8.20;96.70
45115;DHT22;30877;43.706;10.780;2023-01-23T12:32:36;8.10;96.70
45115;DHT22;30877;43.706;10.780;2023-01-23T12:35:25;8.10;96.70
45115;DHT22;30877;43.706;10.780;2023-01-23T12:38:15;8.10;96.70
45115;DHT22;30877;43.706;10.780;2023-01-23T12:40:49;8.10;96.70
45115;DHT22;30877;43.706;10.780;2023-01-23T12:43:30;8.10;96.70
45115;DHT22;30877;43.706;10.780;2023-01-23T12:46:04;8.00;96.70
45115;DHT22;30877;43.706;10.780;2023-01-23T12:48:36;7.90;96.70
45115;DHT22;30877;43.706;10.780;2023-01-23T12:51:11;7.90;96.70
45115;DHT22;30877;43.706;10.780;2023-01-23T12:53:41;7.90;96.70
45115;DHT22;30877;43.706;10.780;2023-01-23T12:56:13;7.80;96.70
45115;DHT22;30877;43.706;10.780;2023-01-23T12:58:47;7.80;96.70
45115;DHT22;30877;43.706;10.780;2023-01-23T13:01:28;7.80;96.70
45115;DHT22;30877;43.706;10.780;2023-01-23T13:07:05;7.80;96.70
45115;DHT22;30877;43.706;10.780;2023-01-23T13:09:45;7.80;96.70
45115;DHT22;30877;43.706;10.780;2023-01-23T13:12:29;7.80;96.70
45115;DHT22;30877;43.706;10.780;2023-01-23T13:15:22;7.90;96.70
45115;DHT22;30877;43.706;10.780;2023-01-23T13:18:32;7.90;96.70
45115;DHT22;30877;43.706;10.780;2023-01-23T13:21:39;8.00;96.70
45115;DHT22;30877;43.706;10.780;2023-01-23T13:24:47;8.00;96.70
45115;DHT22;30877;43.706;10.780;2023-01-23T13:27:40;7.90;96.70
45115;DHT22;30877;43.706;10.780;2023-01-23T13:30:38;7.80;96.70
45115;DHT22;30877;43.706;10.780;2023-01-23T13:36:12;7.80;96.70
45115;DHT22;30877;43.706;10.780;2023-01-23T13:38:40;7.90;96.70
45115;DHT22;30877;43.706;10.780;2023-01-23T13:41:30;7.90;96.70
45115;DHT22;30877;43.706;10.780;2023-01-23T13:44:03;7.90;96.70
45115;DHT22;30877;43.706;10.780;2023-01-23T13:46:41;7.90;96.70
45115;DHT22;30877;43.706;10.780;2023-01-23T13:49:32;7.90;96.70
45115;DHT22;30877;43.706;10.780;2023-01-23T13:52:37;7.90;96.70
45115;DHT22;30877;43.706;10.780;2023-01-23T13:55:40;7.80;96.70
45115;DHT22;30877;43.706;10.780;2023-01-23T13:58:45;7.80;96.70
45115;DHT22;30877;43.706;10.780;2023-01-23T14:01:31;7.70;96.70
45115;DHT22;30877;43.706;10.780;2023-01-23T14:04:34;7.70;96.70
45115;DHT22;30877;43.706;10.780;2023-01-23T14:20:46;7.50;96.70
45115;DHT22;30877;43.706;10.780;2023-01-23T14:23:23;7.50;96.70
45115;DHT22;30877;43.706;10.780;2023-01-23T14:25:52;7.50;96.70
45115;DHT22;30877;43.706;10.780;2023-01-23T14:28:20;7.50;96.70
45115;DHT22;30877;43.706;10.780;2023-01-23T14:31:00;7.50;96.70
45115;DHT22;30877;43.706;10.780;2023-01-23T14:33:36;7.50;96.70
45115;DHT22;30877;43.706;10.780;2023-01-23T14:36:13;7.50;96.70
45115;DHT22;30877;43.706;10.780;2023-01-23T14:38:42;7.40;96.70
45115;DHT22;30877;43.706;10.780;2023-01-23T14:41:12;7.40;96.70
45115;DHT22;30877;43.706;10.780;2023-01-23T14:43:41;7.30;96.70
45115;DHT22;30877;43.706;10.780;2023-01-23T14:46:16;7.30;96.70
45115;DHT22;30877;43.706;10.780;2023-01-23T14:48:48;7.40;96.70
45115;DHT22;30877;43.706;10.780;2023-01-23T14:51:21;7.40;96.70
45115;DHT22;30877;43.706;10.780;2023-01-23T14:53:57;7.50;96.70
45115;DHT22;30877;43.706;10.780;2023-01-23T14:56:29;7.50;96.70
45115;DHT22;30877;43.706;10.780;2023-01-23T14:58:59;7.50;96.70
45115;DHT22;30877;43.706;10.780;2023-01-23T15:01:28;7.50;96.70
45115;DHT22;30877;43.706;10.780;2023-01-23T15:03:59;7.60;96.70
45115;DHT22;30877;43.706;10.780;2023-01-23T15:06:31;7.60;96.70
45115;DHT22;30877;43.706;10.780;2023-01-23T15:09:12;7.50;96.70
45115;DHT22;30877;43.706;10.780;2023-01-23T15:11:42;7.60;96.70
45115;DHT22;30877;43.706;10.780;2023-01-23T15:14:29;7.60;96.70
45115;DHT22;30877;43.706;10.780;2023-01-23T15:17:03;7.60;96.70
45115;DHT22;30877;43.706;10.780;2023-01-23T15:19:35;7.60;96.70
45115;DHT22;30877;43.706;10.780;2023-01-23T15:22:14;7.60;96.70
45115;DHT22;30877;43.706;10.780;2023-01-23T15:24:42;7.50;96.70
45115;DHT22;30877;43.706;10.780;2023-01-23T15:27:26;7.50;96.70
45115;DHT22;30877;43.706;10.780;2023-01-23T15:32:51;7.50;96.70
45115;DHT22;30877;43.706;10.780;2023-01-23T15:35:19;7.50;96.70
45115;DHT22;30877;43.706;10.780;2023-01-23T15:37:49;7.50;96.70
45115;DHT22;30877;43.706;10.780;2023-01-23T15:40:25;7.40;96.70
45115;DHT22;30877;43.706;10.780;2023-01-23T15:43:01;7.30;96.70
45115;DHT22;30877;43.706;10.780;2023-01-23T15:45:30;7.20;96.70
45115;DHT22;30877;43.706;10.780;2023-01-23T15:47:58;7.20;96.70
45115;DHT22;30877;43.706;10.780;2023-01-23T15:50:27;7.10;96.70
45115;DHT22;30877;43.706;10.780;2023-01-23T15:52:57;7.10;96.70
45115;DHT22;30877;43.706;10.780;2023-01-23T15:55:26;7.10;96.70
45115;DHT22;30877;43.706;10.780;2023-01-23T15:57:56;6.90;96.70
45115;DHT22;30877;43.706;10.780;2023-01-23T16:00:28;6.80;96.70
45115;DHT22;30877;43.706;10.780;2023-01-23T16:02:58;6.70;96.70
45115;DHT22;30877;43.706;10.780;2023-01-23T16:05:28;6.40;96.70
45115;DHT22;30877;43.706;10.780;2023-01-23T16:07:59;6.40;96.70
45115;DHT22;30877;43.706;10.780;2023-01-23T16:10:31;6.40;96.70
45115;DHT22;30877;43.706;10.780;2023-01-23T16:13:00;6.40;96.70
45115;DHT22;30877;43.706;10.780;2023-01-23T16:15:29;6.40;96.70
45115;DHT22;30877;43.706;10.780;2023-01-23T16:18:00;6.40;96.70
45115;DHT22;30877;43.706;10.780;2023-01-23T16:20:32;6.40;96.70
45115;DHT22;30877;43.706;10.780;2023-01-23T16:23:10;6.50;96.70
45115;DHT22;30877;43.706;10.780;2023-01-23T16:25:42;6.50;96.70
45115;DHT22;30877;43.706;10.780;2023-01-23T16:28:13;6.60;96.70
45115;DHT22;30877;43.706;10.780;2023-01-23T16:30:41;6.50;96.70
45115;DHT22;30877;43.706;10.780;2023-01-23T16:33:10;6.50;96.70
45115;DHT22;30877;43.706;10.780;2023-01-23T16:35:38;6.40;96.70
45115;DHT22;30877;43.706;10.780;2023-01-23T16:38:17;6.40;96.70